createdAt,value
2022-11-22T00:02:07.250Z,1.55
2022-11-22T00:04:54.143Z,1.61
2022-11-22T00:07:41.146Z,1.66
2022-11-22T00:10:28.314Z,1.64
2022-11-22T00:13:16.312Z,1.56
2022-11-22T00:16:04.714Z,1.52
2022-11-22T00:18:51.636Z,1.49
2022-11-22T00:21:38.750Z,1.50
2022-11-22T00:24:25.690Z,1.51
2022-11-22T00:27:12.659Z,1.33
2022-11-22T00:29:59.577Z,1.31
2022-11-22T00:32:46.740Z,1.30
2022-11-22T00:35:33.650Z,1.35
2022-11-22T00:38:20.505Z,1.27
2022-11-22T00:41:07.408Z,1.29
2022-11-22T00:43:54.329Z,1.39
2022-11-22T00:46:41.432Z,1.44
2022-11-22T00:49:28.416Z,1.44
2022-11-22T00:52:15.663Z,1.51
2022-11-22T00:55:02.800Z,1.43
2022-11-22T00:57:49.732Z,1.44
2022-11-22T01:00:36.713Z,1.40
2022-11-22T01:03:23.803Z,1.46
2022-11-22T01:06:10.928Z,1.44
2022-11-22T01:08:58.104Z,1.34
2022-11-22T01:11:45.113Z,1.39
2022-11-22T01:14:32.125Z,1.43
2022-11-22T01:17:19.093Z,1.39
2022-11-22T01:20:07.040Z,1.44
2022-11-22T01:22:54.024Z,1.36
2022-11-22T01:25:44.461Z,1.37
2022-11-22T01:28:31.584Z,1.36
2022-11-22T01:31:18.528Z,1.37
2022-11-22T01:34:06.353Z,1.35
2022-11-22T01:36:53.270Z,1.31
2022-11-22T01:39:40.437Z,1.22
2022-11-22T01:42:50.796Z,1.17
2022-11-22T01:45:42.728Z,1.17
2022-11-22T01:48:46.777Z,1.20
2022-11-22T01:51:48.436Z,1.18
2022-11-22T01:54:40.346Z,0.99
2022-11-22T01:57:33.401Z,1.05
2022-11-22T02:00:20.464Z,0.84
2022-11-22T02:03:10.861Z,0.63
2022-11-22T02:05:58.113Z,0.64
2022-11-22T02:09:09.236Z,0.54
2022-11-22T02:12:00.210Z,0.41
2022-11-22T02:14:47.662Z,0.36
2022-11-22T02:17:34.804Z,0.31
2022-11-22T02:20:21.719Z,0.32
2022-11-22T02:23:43.174Z,0.38
2022-11-22T02:26:31.513Z,0.48
2022-11-22T02:29:19.333Z,0.20
2022-11-22T02:32:06.254Z,0.02
2022-11-22T02:34:53.197Z,0.08
2022-11-22T02:37:40.268Z,0.17
2022-11-22T02:40:31.608Z,0.22
2022-11-22T02:43:22.082Z,0.17
2022-11-22T02:46:11.732Z,0.16
2022-11-22T02:48:58.804Z,0.12
2022-11-22T02:51:46.749Z,0.13
2022-11-22T02:54:33.673Z,0.13
2022-11-22T02:57:20.616Z,-0.06
2022-11-22T03:00:08.540Z,-0.05
2022-11-22T03:02:55.471Z,-0.20
2022-11-22T03:05:42.449Z,-0.17
2022-11-22T03:08:29.855Z,-0.07
2022-11-22T03:11:17.003Z,-0.14
2022-11-22T03:14:04.198Z,-0.16
2022-11-22T03:16:51.522Z,-0.08
2022-11-22T03:19:38.443Z,-0.02
2022-11-22T03:22:25.739Z,0.06
2022-11-22T03:25:12.653Z,0.11
2022-11-22T03:27:59.601Z,0.03
2022-11-22T03:30:46.542Z,0.07
2022-11-22T03:33:34.487Z,0.08
2022-11-22T03:36:21.688Z,0.22
2022-11-22T03:39:08.880Z,0.29
2022-11-22T03:41:56.472Z,0.30
2022-11-22T03:44:43.589Z,0.39
2022-11-22T03:47:30.529Z,0.51
2022-11-22T03:50:17.452Z,0.48
2022-11-22T03:53:04.765Z,0.44
2022-11-22T03:55:51.907Z,0.44
2022-11-22T03:58:38.836Z,0.38
2022-11-22T04:01:25.787Z,0.37
2022-11-22T04:04:12.982Z,0.40
2022-11-22T04:07:00.091Z,0.38
2022-11-22T04:09:46.992Z,0.42
2022-11-22T04:12:34.189Z,0.46
2022-11-22T04:15:21.133Z,0.44
2022-11-22T04:18:14.900Z,0.41
2022-11-22T04:21:20.704Z,0.47
2022-11-22T04:24:29.130Z,0.46
2022-11-22T04:27:16.045Z,0.46
2022-11-22T04:30:03.334Z,0.54
2022-11-22T04:32:52.767Z,0.49
2022-11-22T04:35:40.493Z,0.58
2022-11-22T04:38:27.844Z,0.65
2022-11-22T04:41:14.964Z,0.72
2022-11-22T04:44:20.720Z,0.89
2022-11-22T04:47:11.960Z,0.91
2022-11-22T04:49:58.898Z,0.94
2022-11-22T04:52:55.116Z,0.99
2022-11-22T04:55:44.969Z,1.02
2022-11-22T04:58:31.876Z,1.07
2022-11-22T05:01:18.930Z,1.03
2022-11-22T05:04:05.907Z,1.05
2022-11-22T05:06:53.200Z,1.12
2022-11-22T05:09:40.242Z,1.07
2022-11-22T05:12:27.204Z,1.08
2022-11-22T05:15:14.566Z,1.14
2022-11-22T05:18:01.608Z,1.23
2022-11-22T05:20:48.747Z,1.16
2022-11-22T05:23:54.500Z,1.14
2022-11-22T05:26:42.038Z,1.26
2022-11-22T05:29:29.228Z,1.24
2022-11-22T05:32:16.394Z,1.17
2022-11-22T05:35:03.645Z,1.22
2022-11-22T05:37:50.715Z,1.12
2022-11-22T05:40:37.770Z,1.09
2022-11-22T05:43:24.652Z,1.09
2022-11-22T05:46:24.235Z,1.07
2022-11-22T05:49:12.181Z,1.12
2022-11-22T05:51:59.400Z,1.11
2022-11-22T05:54:46.438Z,0.94
2022-11-22T05:57:33.398Z,1.02
2022-11-22T06:00:20.605Z,1.03
2022-11-22T06:03:07.514Z,1.01
2022-11-22T06:05:54.445Z,1.13
2022-11-22T06:08:43.364Z,0.98
2022-11-22T06:11:30.556Z,1.02
2022-11-22T06:14:17.490Z,1.08
2022-11-22T06:17:04.401Z,1.13
2022-11-22T06:19:51.518Z,1.12
2022-11-22T06:22:38.412Z,1.03
2022-11-22T06:25:25.628Z,1.06
2022-11-22T06:28:12.521Z,1.08
2022-11-22T06:31:08.083Z,0.98
2022-11-22T06:34:00.088Z,1.00
2022-11-22T06:36:47.071Z,0.90
2022-11-22T06:39:34.243Z,0.96
2022-11-22T06:42:21.197Z,0.98
2022-11-22T06:45:08.830Z,1.00
2022-11-22T06:47:58.312Z,0.86
2022-11-22T06:50:45.901Z,0.95
2022-11-22T06:53:50.473Z,0.98
2022-11-22T06:56:39.272Z,1.02
2022-11-22T06:59:26.321Z,0.94
2022-11-22T07:02:13.440Z,0.96
2022-11-22T07:05:24.425Z,1.02
2022-11-22T07:08:13.538Z,1.11
2022-11-22T07:11:09.084Z,1.23
2022-11-22T07:14:01.887Z,1.14
2022-11-22T07:16:54.079Z,1.08
2022-11-22T07:19:40.964Z,1.09
2022-11-22T07:22:28.632Z,0.97
2022-11-22T07:25:15.568Z,1.02
2022-11-22T07:28:02.478Z,1.15
2022-11-22T07:30:49.680Z,1.32
2022-11-22T07:33:36.717Z,1.40
2022-11-22T07:36:23.840Z,1.65
2022-11-22T07:39:11.301Z,1.66
2022-11-22T07:41:58.209Z,1.69
2022-11-22T07:44:45.083Z,1.68
2022-11-22T07:47:32.169Z,1.74
2022-11-22T07:50:19.067Z,1.85
2022-11-22T07:53:08.423Z,1.87
2022-11-22T07:55:55.293Z,1.80
2022-11-22T07:58:42.276Z,1.80
2022-11-22T08:01:29.438Z,1.81
2022-11-22T08:04:16.581Z,1.82
2022-11-22T08:07:03.742Z,1.84
2022-11-22T08:09:50.650Z,1.83
2022-11-22T08:12:37.656Z,1.97
2022-11-22T08:15:24.505Z,2.01
2022-11-22T08:18:11.411Z,1.97
2022-11-22T08:21:09.664Z,1.99
2022-11-22T08:23:59.435Z,1.97
2022-11-22T08:26:46.422Z,1.99
2022-11-22T08:29:33.358Z,1.97
2022-11-22T08:32:20.256Z,1.99
2022-11-22T08:35:07.840Z,2.06
2022-11-22T08:37:56.562Z,2.19
2022-11-22T08:40:43.451Z,2.15
2022-11-22T08:43:31.364Z,2.14
2022-11-22T08:46:19.538Z,2.12
2022-11-22T08:49:09.207Z,2.14
2022-11-22T08:51:56.121Z,2.17
2022-11-22T08:54:43.034Z,2.19
2022-11-22T08:57:29.948Z,2.14
2022-11-22T09:00:17.320Z,2.26
2022-11-22T09:03:04.245Z,2.35
2022-11-22T09:09:22.182Z,2.27
2022-11-22T09:12:05.603Z,2.39
2022-11-22T09:14:52.763Z,2.40
2022-11-22T09:17:39.639Z,2.41
2022-11-22T09:20:26.529Z,2.43
2022-11-22T09:23:13.358Z,2.48
2022-11-22T09:26:09.427Z,2.57
2022-11-22T09:28:57.280Z,2.67
2022-11-22T09:31:44.396Z,2.68
2022-11-22T09:34:31.288Z,2.75
2022-11-22T09:37:19.914Z,2.79
2022-11-22T09:40:08.044Z,2.72
2022-11-22T09:43:17.208Z,2.73
2022-11-22T09:46:16.163Z,2.65
2022-11-22T09:49:35.428Z,2.70
2022-11-22T09:52:51.010Z,2.64
2022-11-22T09:55:50.089Z,2.65
2022-11-22T09:58:52.382Z,2.61
2022-11-22T10:01:43.967Z,2.69
2022-11-22T10:04:54.762Z,2.77
2022-11-22T10:07:49.259Z,2.83
2022-11-22T10:10:42.165Z,2.94
2022-11-22T10:13:36.089Z,2.99
2022-11-22T10:16:41.788Z,2.97
2022-11-22T10:20:11.293Z,3.03
2022-11-22T10:22:59.207Z,3.07
2022-11-22T10:25:54.742Z,3.12
2022-11-22T10:28:52.421Z,3.20
2022-11-22T10:31:54.818Z,3.23
2022-11-22T10:35:35.028Z,3.12
2022-11-22T10:38:46.214Z,3.23
2022-11-22T10:41:42.015Z,3.15
2022-11-22T10:44:54.521Z,3.17
2022-11-22T10:47:58.087Z,3.18
2022-11-22T10:51:36.785Z,3.24
2022-11-22T10:54:32.242Z,3.19
2022-11-22T10:57:47.370Z,3.20
2022-11-22T11:00:39.489Z,3.27
2022-11-22T11:03:37.527Z,3.21
2022-11-22T11:07:04.585Z,3.25
2022-11-22T11:10:13.711Z,3.19
2022-11-22T11:13:31.805Z,3.26
2022-11-22T11:16:22.600Z,3.27
2022-11-22T11:19:18.720Z,3.30
2022-11-22T11:22:51.564Z,3.26
2022-11-22T11:25:43.276Z,3.32
2022-11-22T11:28:30.935Z,3.33
2022-11-22T11:31:21.804Z,3.33
2022-11-22T11:34:28.156Z,3.23
2022-11-22T11:37:27.568Z,3.31
2022-11-22T11:40:32.044Z,3.38
2022-11-22T11:43:21.615Z,3.37
2022-11-22T11:46:19.993Z,3.36
2022-11-22T11:49:14.236Z,3.34
2022-11-22T11:52:16.293Z,3.36
2022-11-22T11:55:03.310Z,3.34
2022-11-22T11:57:52.516Z,3.35
2022-11-22T12:00:40.217Z,3.29
2022-11-22T12:03:27.832Z,3.21
2022-11-22T12:06:14.861Z,3.18
2022-11-22T12:09:22.695Z,3.17
2022-11-22T12:12:27.137Z,3.20
2022-11-22T12:15:26.227Z,3.10
2022-11-22T12:19:03.992Z,3.01
2022-11-22T12:22:01.477Z,3.16
2022-11-22T12:25:17.006Z,3.16
2022-11-22T12:28:28.142Z,3.08
2022-11-22T12:31:37.211Z,3.02
2022-11-22T12:34:30.096Z,3.03
2022-11-22T12:37:40.205Z,3.11
2022-11-22T12:40:34.330Z,3.02
2022-11-22T12:43:26.102Z,3.08
2022-11-22T12:46:43.755Z,3.07
2022-11-22T12:49:37.648Z,2.93
2022-11-22T12:53:05.676Z,2.95
2022-11-22T12:56:18.328Z,3.04
2022-11-22T12:59:32.257Z,3.07
2022-11-22T13:03:03.354Z,3.22
2022-11-22T13:05:55.574Z,3.29
2022-11-22T13:12:30.888Z,3.25
2022-11-22T13:15:27.168Z,3.30
2022-11-22T13:18:16.897Z,3.24
2022-11-22T13:21:18.728Z,3.26
2022-11-22T13:24:30.704Z,3.14
2022-11-22T13:27:32.320Z,3.16
2022-11-22T13:30:23.970Z,3.14
2022-11-22T13:33:25.987Z,3.17
2022-11-22T13:36:43.593Z,3.05
2022-11-22T13:39:30.488Z,3.07
2022-11-22T13:42:24.633Z,3.00
2022-11-22T13:45:23.187Z,2.96
2022-11-22T13:48:10.839Z,2.98
2022-11-22T13:51:01.741Z,2.96
2022-11-22T13:53:52.682Z,2.96
2022-11-22T13:56:58.796Z,2.98
2022-11-22T13:59:46.873Z,3.02
2022-11-22T14:02:34.196Z,3.07
2022-11-22T14:05:41.390Z,3.03
2022-11-22T14:08:49.081Z,2.97
2022-11-22T14:11:53.920Z,2.99
2022-11-22T14:15:11.485Z,2.99
2022-11-22T14:18:41.371Z,3.00
2022-11-22T14:22:20.737Z,2.91
2022-11-22T14:25:50.722Z,2.92
2022-11-22T14:28:58.572Z,2.94
2022-11-22T14:31:56.093Z,2.96
2022-11-22T14:35:04.102Z,2.89
2022-11-22T14:38:28.404Z,2.79
2022-11-22T14:41:42.019Z,2.75
2022-11-22T14:44:34.270Z,2.77
2022-11-22T14:47:21.447Z,2.71
2022-11-22T14:50:15.777Z,2.71
2022-11-22T14:53:21.649Z,2.75
2022-11-22T14:56:33.038Z,2.75
2022-11-22T15:00:03.805Z,2.77
2022-11-22T15:03:21.782Z,2.81
2022-11-22T15:09:12.139Z,2.83
2022-11-22T15:10:29.694Z,2.86
2022-11-22T15:13:45.245Z,2.84
2022-11-22T15:57:54.221Z,2.93
2022-11-22T16:00:43.869Z,2.94
2022-11-22T16:03:38.127Z,2.98
2022-11-22T16:06:27.984Z,2.99
2022-11-22T16:09:29.388Z,2.93
2022-11-22T16:12:35.621Z,2.97
2022-11-22T16:15:36.445Z,3.01
2022-11-22T16:18:28.227Z,3.01
2022-11-22T16:21:27.280Z,3.00
2022-11-22T16:24:18.531Z,2.99
2022-11-22T16:27:15.067Z,3.06
2022-11-22T16:30:01.938Z,3.08
2022-11-22T16:32:49.798Z,3.12
2022-11-22T16:35:36.751Z,3.12
2022-11-22T16:38:25.413Z,3.04
2022-11-22T16:41:21.593Z,3.08
2022-11-22T16:44:13.486Z,3.04
2022-11-22T16:47:00.998Z,3.04
2022-11-22T16:49:48.927Z,3.06
2022-11-22T16:52:36.725Z,3.06
2022-11-22T16:55:23.911Z,3.07
2022-11-22T16:58:18.559Z,3.08
2022-11-22T17:01:05.696Z,3.10
2022-11-22T17:03:55.731Z,3.10
2022-11-22T17:06:44.431Z,3.07
2022-11-22T17:09:31.521Z,3.03
2022-11-22T17:12:32.186Z,2.87
2022-11-22T17:15:25.121Z,2.91
2022-11-22T17:18:12.304Z,2.85
2022-11-22T17:20:59.459Z,2.91
2022-11-22T17:23:46.819Z,3.03
2022-11-22T17:26:34.827Z,2.96
2022-11-22T17:29:49.349Z,2.97
2022-11-22T17:32:28.731Z,3.02
2022-11-22T17:35:15.640Z,2.97
2022-11-22T17:38:02.584Z,2.89
2022-11-22T17:40:50.216Z,2.92
2022-11-22T17:43:38.089Z,2.90
2022-11-22T17:46:24.991Z,2.85
2022-11-22T17:49:15.751Z,2.87
2022-11-22T17:52:03.364Z,2.89
2022-11-22T17:54:50.371Z,2.95
2022-11-22T17:57:37.368Z,2.95
2022-11-22T18:00:29.894Z,2.99
2022-11-22T18:03:17.096Z,2.96
2022-11-22T18:06:04.608Z,2.98
2022-11-22T18:08:51.643Z,2.89
2022-11-22T18:11:38.636Z,2.90
2022-11-22T18:14:26.158Z,2.79
2022-11-22T18:17:14.081Z,2.75
2022-11-22T18:20:01.719Z,2.82
2022-11-22T18:22:48.624Z,2.83
2022-11-22T18:25:37.149Z,2.83
2022-11-22T18:28:24.074Z,2.82
2022-11-22T18:31:10.986Z,2.92
2022-11-22T18:33:57.908Z,2.84
2022-11-22T18:37:13.922Z,2.83
2022-11-22T18:39:51.673Z,2.83
2022-11-22T18:42:38.835Z,2.90
2022-11-22T18:45:33.392Z,2.93
2022-11-22T18:48:20.272Z,2.93
2022-11-22T18:51:08.767Z,2.91
2022-11-22T18:53:55.648Z,2.90
2022-11-22T18:56:42.599Z,2.87
2022-11-22T18:59:29.559Z,2.89
2022-11-22T19:02:16.640Z,2.92
2022-11-22T19:05:04.235Z,2.94
2022-11-22T19:07:51.265Z,2.98
2022-11-22T19:10:38.162Z,2.89
2022-11-22T19:13:25.172Z,2.82
2022-11-22T19:16:15.217Z,2.88
2022-11-22T19:19:02.333Z,2.87
2022-11-22T19:21:49.216Z,2.92
2022-11-22T19:24:36.160Z,2.88
2022-11-22T19:27:24.184Z,2.86
2022-11-22T19:30:12.046Z,2.85
2022-11-22T19:32:58.965Z,2.87
2022-11-22T19:35:59.543Z,2.93
2022-11-22T19:38:46.776Z,2.95
2022-11-22T19:41:33.763Z,2.93
2022-11-22T19:44:21.152Z,2.93
2022-11-22T19:47:08.062Z,3.00
2022-11-22T19:49:54.957Z,2.97
2022-11-22T19:52:41.993Z,2.95
2022-11-22T19:55:28.851Z,2.95
2022-11-22T19:58:17.482Z,2.96
2022-11-22T20:01:10.621Z,2.89
2022-11-22T20:04:03.684Z,2.92
2022-11-22T20:06:50.657Z,2.81
2022-11-22T20:09:37.901Z,2.82
2022-11-22T20:12:24.768Z,2.85
2022-11-22T20:15:11.759Z,2.85
2022-11-22T20:17:58.801Z,2.81
2022-11-22T20:20:45.791Z,2.79
2022-11-22T20:23:33.684Z,2.78
2022-11-22T20:26:21.478Z,2.89
2022-11-22T20:29:12.590Z,2.81
2022-11-22T20:32:01.495Z,2.80
2022-11-22T20:34:48.495Z,2.74
2022-11-22T20:37:35.554Z,2.71
2022-11-22T20:40:22.470Z,2.75
2022-11-22T20:43:09.411Z,2.75
2022-11-22T20:46:03.705Z,2.73
2022-11-22T20:48:54.199Z,2.61
2022-11-22T20:51:42.216Z,2.64
2022-11-22T20:54:29.767Z,2.68
2022-11-22T20:57:16.922Z,2.65
2022-11-22T21:00:04.444Z,2.57
2022-11-22T21:02:51.472Z,2.63
2022-11-22T21:05:38.608Z,2.61
2022-11-22T21:08:25.535Z,2.60
2022-11-22T21:11:17.796Z,2.56
2022-11-22T21:14:04.791Z,2.52
2022-11-22T21:16:51.709Z,2.58
2022-11-22T21:19:39.940Z,2.57
2022-11-22T21:22:31.534Z,2.53
2022-11-22T21:25:18.763Z,2.50
2022-11-22T21:28:06.617Z,2.57
2022-11-22T21:30:58.135Z,2.64
2022-11-22T21:33:48.384Z,2.63
2022-11-22T21:36:35.286Z,2.62
2022-11-22T21:39:22.333Z,2.55
2022-11-22T21:42:09.638Z,2.57
2022-11-22T21:44:56.553Z,2.57
2022-11-22T21:47:43.482Z,2.59
2022-11-22T21:50:30.405Z,2.60
2022-11-22T21:53:17.364Z,2.55
2022-11-22T21:56:04.423Z,2.64
2022-11-22T21:58:51.302Z,2.67
2022-11-22T22:01:38.495Z,2.70
2022-11-22T22:04:25.574Z,2.63
2022-11-22T22:07:29.770Z,2.64
2022-11-22T22:10:19.610Z,2.60
2022-11-22T22:13:06.769Z,2.52
2022-11-22T22:15:58.694Z,2.69
2022-11-22T22:18:45.680Z,2.59
2022-11-22T22:21:32.544Z,2.58
2022-11-22T22:24:19.507Z,2.55
2022-11-22T22:27:06.406Z,2.43
2022-11-22T22:29:53.365Z,2.41
2022-11-22T22:32:40.257Z,2.46
2022-11-22T22:35:27.172Z,2.58
2022-11-22T22:38:14.096Z,2.51
2022-11-22T22:41:03.584Z,2.53
2022-11-22T22:43:50.498Z,2.40
2022-11-22T22:46:37.413Z,2.52
2022-11-22T22:49:24.276Z,2.47
2022-11-22T22:52:11.413Z,2.39
2022-11-22T22:54:58.310Z,2.42
2022-11-22T22:57:45.282Z,2.46
2022-11-22T23:00:32.206Z,2.40
2022-11-22T23:03:19.577Z,2.39
2022-11-22T23:06:11.634Z,2.44
2022-11-22T23:08:59.634Z,2.43
2022-11-22T23:12:05.407Z,2.46
2022-11-22T23:14:52.488Z,2.42
2022-11-22T23:17:39.500Z,2.46
2022-11-22T23:20:26.416Z,2.46
2022-11-22T23:23:13.333Z,2.51
2022-11-22T23:26:18.584Z,2.42
2022-11-22T23:29:05.494Z,2.41
2022-11-22T23:31:52.768Z,2.38
2022-11-22T23:34:39.788Z,2.39
2022-11-22T23:37:26.684Z,2.38
2022-11-22T23:40:13.905Z,2.42
2022-11-22T23:43:00.871Z,2.41
2022-11-22T23:45:47.819Z,2.38
2022-11-22T23:48:34.706Z,2.38
2022-11-22T23:51:22.579Z,2.49
2022-11-22T23:54:10.634Z,2.52
2022-11-22T23:56:57.533Z,2.40
2022-11-22T23:59:44.497Z,2.41
